»·PEaware :: GGN7306 CYYZ-KPIT

GGN7306 :: CYYZ-KPIT

FLIGHT INFORMATION

Flight Status: Arrived
Operator: Unknown
More flights by this operator :: More flights under this callsign
Pilot: Cooper L. (8467)
Aircraft: CANADAIR CL-600 CRJ-200
(CRJ2)
More flights by this aircraft type
Origin: CYYZ Toronto/Pearson Intl
Canada
Destination: KPIT Pittsburgh Intl
United States
More flights between these airports :: More routes between these airports
Route: BETES2 ERI YNG JESEY2
File this flight plan on PilotEdge
Remarks:
Altitude:
(Current/Filed)
22,000ft
Speed:
(Current/Filed)
325kts
Departed: 10-Jun-17 06:46 PM
Arrived: 10-Jun-17 07:24 PM
Distance/Time
Traveled:
193nm/0:38
Distance/Time
To Go:
Arrived

Flight Plot

Page will automatically refresh every two minutes.

Flight plan parsing failed; only flown route is shown


Map Options




Map Legend


Flown Route
Filed Route
Departure Airport
Arrival Airport
Navaid (VOR, NDB)
Fix

Horizontal Profiles

Position Reports

Time Latitude Longitude Heading Altitude Ground
Speed
10-Jun-17 18:36 43.682782 -79.615512 224 567ft 0kts
10-Jun-17 18:37 43.682988 -79.615238 224 567ft 3kts
10-Jun-17 18:38 43.682958 -79.614700 301 566ft 0kts
10-Jun-17 18:39 43.682958 -79.614700 301 566ft 0kts
10-Jun-17 18:40 43.682958 -79.614700 301 566ft 0kts
10-Jun-17 18:41 43.682958 -79.614700 301 566ft 0kts
10-Jun-17 18:42 43.683034 -79.614870 301 567ft 4kts
10-Jun-17 18:43 43.680077 -79.620078 213 566ft 19kts
10-Jun-17 18:44 43.674132 -79.614437 137 561ft 23kts
10-Jun-17 18:45 43.672294 -79.610315 43 555ft 14kts
10-Jun-17 18:46 43.678491 -79.601345 44 555ft 15kts
10-Jun-17 18:47 43.679282 -79.598324 137 552ft 17kts
10-Jun-17 18:48 43.672879 -79.606206 225 553ft 117kts
10-Jun-17 18:49 43.637902 -79.655158 209 2298ft 238kts
10-Jun-17 18:50 43.575045 -79.653152 185 6433ft 254kts
10-Jun-17 18:51 43.503275 -79.661884 191 10283ft 268kts
10-Jun-17 18:52 43.426474 -79.675864 193 12938ft 317kts
10-Jun-17 18:53 43.339901 -79.718995 205 16208ft 344kts
10-Jun-17 18:54 43.247340 -79.766380 198 18897ft 388kts
10-Jun-17 18:55 43.138859 -79.803700 198 21861ft 415kts
10-Jun-17 18:56 43.017240 -79.844893 197 22113ft 472kts
10-Jun-17 18:57 42.897997 -79.885019 198 21948ft 442kts
10-Jun-17 18:58 42.781616 -79.931480 204 21949ft 447kts
10-Jun-17 18:59 42.677442 -79.981219 204 21991ft 440kts
10-Jun-17 19:00 42.563300 -80.035578 204 21992ft 434kts
10-Jun-17 19:01 42.448194 -80.090215 204 21997ft 448kts
10-Jun-17 19:02 42.328931 -80.146558 204 21996ft 460kts
10-Jun-17 19:03 42.208102 -80.203376 204 21995ft 463kts
10-Jun-17 19:04 42.086952 -80.260185 203 21995ft 464kts
10-Jun-17 19:05 41.966614 -80.321247 207 21996ft 463kts
10-Jun-17 19:06 41.849198 -80.387102 207 21989ft 464kts
10-Jun-17 19:07 41.730199 -80.453575 207 22042ft 462kts
10-Jun-17 19:08 41.611824 -80.519446 207 22044ft 463kts
10-Jun-17 19:09 41.493624 -80.584952 207 22060ft 462kts
10-Jun-17 19:10 41.393119 -80.640479 207 20194ft 447kts
10-Jun-17 19:11 41.276806 -80.682677 180 18040ft 438kts
10-Jun-17 19:12 41.164594 -80.658623 174 16759ft 399kts
10-Jun-17 19:13 41.063390 -80.638148 175 16328ft 333kts
10-Jun-17 19:14 40.976205 -80.620847 175 14324ft 322kts
10-Jun-17 19:15 40.896572 -80.605012 175 12414ft 307kts
10-Jun-17 19:16 40.814122 -80.588789 176 10044ft 297kts
10-Jun-17 19:17 40.734456 -80.572888 175 7843ft 288kts
10-Jun-17 19:18 40.662018 -80.558523 176 6522ft 248kts
10-Jun-17 19:19 40.598344 -80.546033 176 5071ft 244kts
10-Jun-17 19:20 40.533973 -80.533611 171 3980ft 222kts
10-Jun-17 19:21 40.483634 -80.509521 108 3526ft 203kts
10-Jun-17 19:22 40.503950 -80.442727 62 2971ft 191kts
10-Jun-17 19:23 40.505248 -80.383699 92 2874ft 143kts
10-Jun-17 19:24 40.503992 -80.334551 95 2123ft 142kts
10-Jun-17 19:25 40.502577 -80.279466 93 1351ft 143kts
10-Jun-17 19:26 40.501629 -80.248075 106 1142ft 32kts
10-Jun-17 19:27 40.500176 -80.243387 164 1170ft 16kts
10-Jun-17 19:28 40.498686 -80.243065 161 1168ft 0kts
10-Jun-17 19:29 40.498686 -80.243065 161 1168ft 0kts

Navigation Log

Ident Type
Flight plan parsing failed, navigation log unavailable